sensor_id;sensor_type;location;lat;lon;timestamp;pressure;altitude;pressure_sealevel;temperature;humidity
4528;BME280;62320;51.520;6.818;2023-02-08T00:00:11;103485.97;;;-0.38;91.81
4528;BME280;62320;51.520;6.818;2023-02-08T00:10:13;103470.13;;;-0.54;91.77
4528;BME280;62320;51.520;6.818;2023-02-08T00:20:15;103472.91;;;-0.61;91.73
4528;BME280;62320;51.520;6.818;2023-02-08T00:30:16;103458.34;;;-0.73;92.24
4528;BME280;62320;51.520;6.818;2023-02-08T00:40:18;103444.56;;;-0.66;92.27
4528;BME280;62320;51.520;6.818;2023-02-08T00:50:19;103436.66;;;-0.98;92.73
4528;BME280;62320;51.520;6.818;2023-02-08T01:00:20;103431.78;;;-1.05;92.36
4528;BME280;62320;51.520;6.818;2023-02-08T01:10:22;103435.88;;;-1.15;92.57
4528;BME280;62320;51.520;6.818;2023-02-08T01:20:24;103439.59;;;-1.30;92.99
4528;BME280;62320;51.520;6.818;2023-02-08T01:30:26;103430.53;;;-1.37;93.66
4528;BME280;62320;51.520;6.818;2023-02-08T01:40:27;103426.56;;;-1.43;92.95
4528;BME280;62320;51.520;6.818;2023-02-08T01:50:33;103417.69;;;-1.57;93.43
4528;BME280;62320;51.520;6.818;2023-02-08T02:00:35;103422.19;;;-1.63;93.20
4528;BME280;62320;51.520;6.818;2023-02-08T02:10:38;103429.75;;;-1.73;93.68
4528;BME280;62320;51.520;6.818;2023-02-08T02:41:55;103411.81;;;-2.02;94.18
4528;BME280;62320;51.520;6.818;2023-02-08T02:52:45;103399.97;;;-2.11;94.10
4528;BME280;62320;51.520;6.818;2023-02-08T03:02:49;103402.03;;;-2.07;94.17
4528;BME280;62320;51.520;6.818;2023-02-08T03:23:18;103406.75;;;-2.02;93.33
4528;BME280;62320;51.520;6.818;2023-02-08T03:43:55;103403.97;;;-2.13;93.36
4528;BME280;62320;51.520;6.818;2023-02-08T03:54:00;103411.78;;;-2.21;93.83
4528;BME280;62320;51.520;6.818;2023-02-08T04:04:03;103418.97;;;-2.34;94.04
4528;BME280;62320;51.520;6.818;2023-02-08T04:14:05;103426.44;;;-2.35;94.35
4528;BME280;62320;51.520;6.818;2023-02-08T04:24:06;103422.56;;;-2.40;94.11
4528;BME280;62320;51.520;6.818;2023-02-08T04:34:08;103425.41;;;-2.37;93.49
4528;BME280;62320;51.520;6.818;2023-02-08T04:44:10;103416.47;;;-2.42;93.76
4528;BME280;62320;51.520;6.818;2023-02-08T04:54:11;103425.16;;;-2.49;94.19
4528;BME280;62320;51.520;6.818;2023-02-08T05:04:13;103427.38;;;-2.52;94.16
4528;BME280;62320;51.520;6.818;2023-02-08T05:14:14;103418.63;;;-2.64;93.98
4528;BME280;62320;51.520;6.818;2023-02-08T05:24:16;103422.94;;;-2.63;93.75
4528;BME280;62320;51.520;6.818;2023-02-08T05:34:17;103411.63;;;-2.66;94.14
4528;BME280;62320;51.520;6.818;2023-02-08T05:44:19;103423.13;;;-2.78;94.16
4528;BME280;62320;51.520;6.818;2023-02-08T05:54:20;103424.63;;;-2.80;94.00
4528;BME280;62320;51.520;6.818;2023-02-08T06:04:22;103432.50;;;-2.86;94.55
4528;BME280;62320;51.520;6.818;2023-02-08T06:14:23;103434.47;;;-2.92;94.24
4528;BME280;62320;51.520;6.818;2023-02-08T06:24:25;103430.31;;;-3.00;94.24
4528;BME280;62320;51.520;6.818;2023-02-08T06:34:26;103427.78;;;-3.00;94.50
4528;BME280;62320;51.520;6.818;2023-02-08T06:44:28;103415.72;;;-3.03;94.97
4528;BME280;62320;51.520;6.818;2023-02-08T06:54:29;103416.78;;;-3.09;94.77
4528;BME280;62320;51.520;6.818;2023-02-08T07:04:31;103401.72;;;-2.99;93.88
4528;BME280;62320;51.520;6.818;2023-02-08T07:14:38;103401.44;;;-3.02;93.82
4528;BME280;62320;51.520;6.818;2023-02-08T07:24:41;103397.84;;;-3.04;94.76
4528;BME280;62320;51.520;6.818;2023-02-08T07:34:42;103386.81;;;-2.96;94.70
4528;BME280;62320;51.520;6.818;2023-02-08T07:44:45;103389.22;;;-2.98;94.63
4528;BME280;62320;51.520;6.818;2023-02-08T07:54:46;103396.72;;;-2.63;94.24
4528;BME280;62320;51.520;6.818;2023-02-08T08:04:47;103384.06;;;-2.63;94.85
4528;BME280;62320;51.520;6.818;2023-02-08T08:14:49;103387.31;;;-2.56;95.38
4528;BME280;62320;51.520;6.818;2023-02-08T08:24:51;103388.81;;;-2.22;94.27
4528;BME280;62320;51.520;6.818;2023-02-08T08:34:52;103381.03;;;-2.15;94.49
4528;BME280;62320;51.520;6.818;2023-02-08T08:44:54;103364.13;;;-2.06;95.06
4528;BME280;62320;51.520;6.818;2023-02-08T08:54:55;103361.34;;;-1.90;95.10
4528;BME280;62320;51.520;6.818;2023-02-08T09:04:57;103380.66;;;-1.74;94.62
4528;BME280;62320;51.520;6.818;2023-02-08T09:15:00;103383.13;;;-1.47;93.19
4528;BME280;62320;51.520;6.818;2023-02-08T09:25:02;103368.81;;;-1.27;93.09
4528;BME280;62320;51.520;6.818;2023-02-08T09:35:06;103372.19;;;-1.08;91.21
4528;BME280;62320;51.520;6.818;2023-02-08T10:05:31;103385.56;;;-0.33;86.74
4528;BME280;62320;51.520;6.818;2023-02-08T10:15:47;103384.19;;;-0.30;87.16
4528;BME280;62320;51.520;6.818;2023-02-08T10:36:11;103374.34;;;0.14;82.21
4528;BME280;62320;51.520;6.818;2023-02-08T10:46:29;103375.09;;;0.23;84.01
4528;BME280;62320;51.520;6.818;2023-02-08T10:56:36;103376.50;;;0.29;81.10
4528;BME280;62320;51.520;6.818;2023-02-08T11:06:42;103358.78;;;0.61;78.98
4528;BME280;62320;51.520;6.818;2023-02-08T11:16:52;103339.16;;;0.70;78.65
4528;BME280;62320;51.520;6.818;2023-02-08T11:26:55;103328.28;;;0.83;82.02
4528;BME280;62320;51.520;6.818;2023-02-08T11:36:58;103321.34;;;1.23;70.01
4528;BME280;62320;51.520;6.818;2023-02-08T11:47:05;103301.97;;;1.25;76.02
4528;BME280;62320;51.520;6.818;2023-02-08T11:57:20;103294.63;;;1.40;78.09
4528;BME280;62320;51.520;6.818;2023-02-08T12:07:33;103286.88;;;1.72;74.38
4528;BME280;62320;51.520;6.818;2023-02-08T12:28:37;103258.63;;;1.80;75.21
4528;BME280;62320;51.520;6.818;2023-02-08T12:38:58;103253.25;;;2.10;74.84
4528;BME280;62320;51.520;6.818;2023-02-08T13:00:24;103241.28;;;2.44;69.18
4528;BME280;62320;51.520;6.818;2023-02-08T13:10:36;103211.53;;;2.45;72.72
4528;BME280;62320;51.520;6.818;2023-02-08T13:30:45;103168.72;;;3.02;69.26
4528;BME280;62320;51.520;6.818;2023-02-08T13:41:19;103168.19;;;3.43;55.07
4528;BME280;62320;51.520;6.818;2023-02-08T14:01:34;103132.94;;;3.26;72.25
4528;BME280;62320;51.520;6.818;2023-02-08T14:12:19;103109.56;;;3.46;70.32
4528;BME280;62320;51.520;6.818;2023-02-08T14:22:17;103112.56;;;3.79;66.12
4528;BME280;62320;51.520;6.818;2023-02-08T14:32:24;103095.72;;;3.82;63.07
4528;BME280;62320;51.520;6.818;2023-02-08T14:53:02;103058.72;;;3.90;70.65
4528;BME280;62320;51.520;6.818;2023-02-08T15:03:13;103052.22;;;3.82;69.24
4528;BME280;62320;51.520;6.818;2023-02-08T15:13:21;103044.34;;;3.92;71.48
4528;BME280;62320;51.520;6.818;2023-02-08T15:23:24;103031.44;;;4.04;65.40
4528;BME280;62320;51.520;6.818;2023-02-08T15:33:26;103034.69;;;4.01;70.73
4528;BME280;62320;51.520;6.818;2023-02-08T15:43:28;103026.59;;;4.08;71.74
4528;BME280;62320;51.520;6.818;2023-02-08T15:53:29;103027.34;;;4.20;63.64
4528;BME280;62320;51.520;6.818;2023-02-08T16:03:32;103007.28;;;4.13;69.45
4528;BME280;62320;51.520;6.818;2023-02-08T16:13:37;102990.13;;;4.12;74.03
4528;BME280;62320;51.520;6.818;2023-02-08T16:23:48;102984.75;;;4.08;74.02
4528;BME280;62320;51.520;6.818;2023-02-08T16:33:56;102984.97;;;3.85;69.02
4528;BME280;62320;51.520;6.818;2023-02-08T16:44:15;102977.13;;;3.69;71.88
4528;BME280;62320;51.520;6.818;2023-02-08T16:54:18;102966.84;;;3.54;71.63
4528;BME280;62320;51.520;6.818;2023-02-08T17:04:22;102963.41;;;3.40;71.85
4528;BME280;62320;51.520;6.818;2023-02-08T17:14:27;102951.00;;;3.46;75.22
4528;BME280;62320;51.520;6.818;2023-02-08T17:24:28;102939.91;;;3.33;73.24
4528;BME280;62320;51.520;6.818;2023-02-08T17:34:30;102924.38;;;3.04;73.12
4528;BME280;62320;51.520;6.818;2023-02-08T17:44:31;102923.94;;;2.84;75.35
4528;BME280;62320;51.520;6.818;2023-02-08T17:54:33;102914.41;;;2.69;75.91
4528;BME280;62320;51.520;6.818;2023-02-08T18:04:37;102901.41;;;2.53;74.86
4528;BME280;62320;51.520;6.818;2023-02-08T18:14:39;102908.38;;;2.55;73.80
4528;BME280;62320;51.520;6.818;2023-02-08T18:24:40;102909.19;;;2.30;74.23
4528;BME280;62320;51.520;6.818;2023-02-08T18:34:42;102905.38;;;2.11;73.43
4528;BME280;62320;51.520;6.818;2023-02-08T18:44:45;102898.84;;;1.90;75.01
4528;BME280;62320;51.520;6.818;2023-02-08T18:54:46;102905.19;;;1.84;73.42
4528;BME280;62320;51.520;6.818;2023-02-08T19:04:48;102898.34;;;1.71;74.66
4528;BME280;62320;51.520;6.818;2023-02-08T19:14:50;102900.91;;;1.60;72.83
4528;BME280;62320;51.520;6.818;2023-02-08T19:24:51;102910.59;;;1.52;71.10
4528;BME280;62320;51.520;6.818;2023-02-08T19:34:53;102894.28;;;1.50;68.84
4528;BME280;62320;51.520;6.818;2023-02-08T19:44:55;102885.53;;;1.47;70.62
4528;BME280;62320;51.520;6.818;2023-02-08T19:54:56;102902.66;;;1.36;72.06
4528;BME280;62320;51.520;6.818;2023-02-08T20:04:58;102902.84;;;1.27;71.65
4528;BME280;62320;51.520;6.818;2023-02-08T20:14:59;102907.53;;;1.21;69.61
4528;BME280;62320;51.520;6.818;2023-02-08T20:25:00;102920.16;;;1.08;70.08
4528;BME280;62320;51.520;6.818;2023-02-08T20:35:05;102920.59;;;1.03;72.20
4528;BME280;62320;51.520;6.818;2023-02-08T20:45:07;102921.06;;;0.97;74.88
4528;BME280;62320;51.520;6.818;2023-02-08T20:55:09;102912.41;;;0.84;70.54
4528;BME280;62320;51.520;6.818;2023-02-08T21:05:10;102924.78;;;0.67;71.30
4528;BME280;62320;51.520;6.818;2023-02-08T21:15:12;102927.19;;;0.66;74.77
4528;BME280;62320;51.520;6.818;2023-02-08T21:25:13;102928.19;;;0.56;72.09
4528;BME280;62320;51.520;6.818;2023-02-08T21:35:15;102922.53;;;0.49;73.37
4528;BME280;62320;51.520;6.818;2023-02-08T21:45:17;102921.72;;;0.38;73.77
4528;BME280;62320;51.520;6.818;2023-02-08T21:55:19;102901.88;;;0.23;72.63
4528;BME280;62320;51.520;6.818;2023-02-08T22:05:20;102887.78;;;0.16;71.64
4528;BME280;62320;51.520;6.818;2023-02-08T22:15:40;102888.44;;;0.02;74.42
4528;BME280;62320;51.520;6.818;2023-02-08T22:25:41;102891.38;;;-0.04;75.05
4528;BME280;62320;51.520;6.818;2023-02-08T22:35:43;102882.94;;;-0.14;75.36
4528;BME280;62320;51.520;6.818;2023-02-08T22:45:55;102887.31;;;-0.23;75.31
4528;BME280;62320;51.520;6.818;2023-02-08T22:55:56;102873.75;;;-0.34;75.40
4528;BME280;62320;51.520;6.818;2023-02-08T23:05:57;102875.84;;;-0.40;75.10
4528;BME280;62320;51.520;6.818;2023-02-08T23:15:59;102867.25;;;-0.52;74.78
4528;BME280;62320;51.520;6.818;2023-02-08T23:26:06;102849.78;;;-0.37;73.30
4528;BME280;62320;51.520;6.818;2023-02-08T23:36:13;102828.63;;;-0.48;72.60
4528;BME280;62320;51.520;6.818;2023-02-08T23:46:21;102815.97;;;-0.36;72.08
4528;BME280;62320;51.520;6.818;2023-02-08T23:56:26;102826.53;;;-0.20;71.52
